Time;durP1;ratioP1;P1;durP2;ratioP2;P2;SDS_P1;SDS_P2;PMS_P1;PMS_P2;Temp;Humidity;BMP_temperature;BMP_pressure;BME280_temperature;BME280_humidity;BME280_pressure;Samples;Min_cycle;Max_cycle;Signal;HPM_P1;HPM_P2
2021/12/04 00:01:56;;;;;;;36.17;18.20;;;5.10;99.90;;;;;;5037652;28;20142;-74
2021/12/04 00:04:30;;;;;;;45.00;19.05;;;5.10;99.90;;;;;;5035192;28;20047;-74
2021/12/04 00:06:55;;;;;;;47.03;18.15;;;5.10;99.90;;;;;;5022844;28;20401;-73
2021/12/04 00:09:22;;;;;;;37.97;17.37;;;5.10;99.90;;;;;;5057470;22;20041;-83
2021/12/04 00:12:01;;;;;;;48.53;19.27;;;5.10;99.90;;;;;;4996392;28;20045;-83
2021/12/04 00:14:30;;;;;;;41.78;19.42;;;5.00;99.90;;;;;;4998593;28;20053;-82
2021/12/04 00:17:07;;;;;;;43.33;18.20;;;5.10;99.90;;;;;;5007374;28;20217;-83
2021/12/04 00:19:56;;;;;;;42.05;17.58;;;5.10;99.90;;;;;;5017483;28;20096;-82
2021/12/04 00:22:22;;;;;;;40.15;17.92;;;5.10;99.90;;;;;;4972576;28;20056;-83
2021/12/04 00:24:50;;;;;;;40.53;18.33;;;5.10;99.90;;;;;;4991443;28;20121;-83
2021/12/04 00:27:34;;;;;;;38.72;16.88;;;5.00;99.90;;;;;;5007527;28;20512;-83
2021/12/04 00:30:02;;;;;;;50.10;19.23;;;5.00;99.90;;;;;;4991782;28;20045;-83
2021/12/04 00:32:33;;;;;;;48.72;19.90;;;5.00;99.90;;;;;;4993635;28;20569;-83
2021/12/04 00:35:49;;;;;;;37.65;16.90;;;5.00;99.90;;;;;;4993734;28;20139;-82
2021/12/04 00:43:14;;;;;;;39.15;16.90;;;5.00;99.90;;;;;;5001893;28;20070;-82
2021/12/04 00:49:41;;;;;;;46.58;16.90;;;5.00;99.90;;;;;;5009293;28;20104;-83
2021/12/04 00:52:07;;;;;;;48.70;16.95;;;5.00;99.90;;;;;;4976780;28;20053;-83
2021/12/04 00:54:32;;;;;;;43.63;16.87;;;4.90;99.90;;;;;;4994525;28;20029;-83
2021/12/04 00:57:03;;;;;;;44.53;16.97;;;5.00;99.90;;;;;;4991608;28;20103;-83
2021/12/04 00:59:56;;;;;;;;;;;;;;;;;;;;;
2021/12/04 01:02:57;;;;;;;;;;;;;;;;;;;;;
2021/12/04 01:05:52;;;;;;;;;;;;;;;;;;;;;
2021/12/04 01:08:34;;;;;;;46.33;16.73;;;4.90;99.90;;;;;;5008463;28;20096;-82
2021/12/04 01:11:03;;;;;;;42.92;15.10;;;5.00;99.90;;;;;;4992770;28;20048;-83
2021/12/04 01:13:32;;;;;;;48.40;16.02;;;4.90;99.90;;;;;;4975109;28;20050;-82
2021/12/04 01:15:58;;;;;;;49.35;17.10;;;4.90;99.90;;;;;;4998004;28;20038;-83
2021/12/04 01:18:26;;;;;;;51.65;16.65;;;4.90;99.90;;;;;;5009195;28;20041;-83
2021/12/04 01:21:00;;;;;;;47.13;16.38;;;4.90;99.90;;;;;;4992550;28;20084;-82
2021/12/04 01:23:25;;;;;;;49.50;17.13;;;4.90;99.90;;;;;;5004381;28;20042;-83
2021/12/04 01:25:51;;;;;;;55.93;16.40;;;4.90;99.90;;;;;;5005394;28;20046;-82
2021/12/04 01:28:19;;;;;;;47.10;15.53;;;4.90;99.90;;;;;;4992953;28;20037;-82
2021/12/04 01:30:48;;;;;;;39.60;15.95;;;4.90;99.90;;;;;;4982796;28;20042;-82
2021/12/04 01:33:13;;;;;;;49.28;18.30;;;4.90;99.90;;;;;;4992317;28;20088;-81
2021/12/04 01:35:47;;;;;;;50.00;15.67;;;4.90;99.90;;;;;;4971997;28;20041;-82
2021/12/04 01:38:18;;;;;;;45.92;15.88;;;4.90;99.90;;;;;;4967614;28;20037;-82
2021/12/04 01:40:45;;;;;;;41.50;15.50;;;4.90;99.90;;;;;;4992783;28;20092;-82
2021/12/04 01:43:11;;;;;;;48.58;15.25;;;4.90;99.90;;;;;;4992618;28;20064;-83
2021/12/04 01:45:37;;;;;;;50.97;15.80;;;4.90;99.90;;;;;;4992898;28;20132;-81
2021/12/04 01:48:03;;;;;;;53.93;16.33;;;4.90;99.90;;;;;;4993525;28;20140;-83
2021/12/04 01:50:30;;;;;;;;;;;4.90;99.90;;;;;;4977413;28;20044;-83
2021/12/04 01:52:59;;;;;;;42.95;15.70;;;4.90;99.90;;;;;;5010980;28;19917;-83
2021/12/04 01:55:33;;;;;;;40.55;15.63;;;4.90;99.90;;;;;;4965833;28;20043;-83
2021/12/04 01:58:01;;;;;;;51.92;17.38;;;4.90;99.90;;;;;;4988610;28;20038;-83
2021/12/04 02:00:31;;;;;;;48.03;15.85;;;4.90;99.90;;;;;;4993531;28;20500;-82
2021/12/04 02:02:57;;;;;;;51.10;16.70;;;4.90;99.90;;;;;;4975239;28;20053;-83
2021/12/04 02:05:23;;;;;;;56.63;16.87;;;4.90;99.90;;;;;;4990453;28;20045;-83
2021/12/04 02:07:48;;;;;;;49.10;15.37;;;4.90;99.90;;;;;;4993473;28;20554;-83
2021/12/04 02:10:14;;;;;;;48.77;15.53;;;4.90;99.90;;;;;;4993859;28;20041;-83
2021/12/04 02:12:40;;;;;;;46.03;15.80;;;4.90;99.90;;;;;;4977606;28;20061;-83
2021/12/04 02:15:13;;;;;;;40.55;14.85;;;4.90;99.90;;;;;;4994099;28;20415;-83
2021/12/04 02:17:39;;;;;;;52.38;15.93;;;4.90;99.90;;;;;;4997935;28;20046;-83
2021/12/04 02:20:10;;;;;;;45.17;16.30;;;4.90;99.90;;;;;;4991848;28;20049;-83
2021/12/04 02:22:35;;;;;;;44.70;16.02;;;4.90;99.90;;;;;;4991909;28;20466;-83
2021/12/04 02:25:01;;;;;;;40.67;15.37;;;4.90;99.90;;;;;;4989334;28;20041;-83
2021/12/04 02:27:26;;;;;;;47.93;15.53;;;4.90;99.90;;;;;;4992235;28;20053;-83
2021/12/04 02:29:52;;;;;;;44.17;16.20;;;4.90;99.90;;;;;;4991757;28;20045;-82
2021/12/04 02:32:19;;;;;;;59.27;17.07;;;4.90;99.90;;;;;;4994931;28;20053;-83
2021/12/04 02:34:45;;;;;;;46.67;16.45;;;4.90;99.90;;;;;;4975750;28;20065;-83
2021/12/04 02:37:12;;;;;;;;;;;4.90;99.90;;;;;;4976155;28;20550;-83
2021/12/04 02:39:42;;;;;;;42.25;14.02;;;4.90;99.90;;;;;;4992124;28;19917;-83
2021/12/04 02:42:19;;;;;;;47.40;14.32;;;4.90;99.90;;;;;;4985022;28;20084;-82
2021/12/04 02:44:45;;;;;;;49.25;15.48;;;4.90;99.90;;;;;;4990448;28;20053;-83
2021/12/04 02:47:14;;;;;;;52.72;15.43;;;4.90;99.90;;;;;;4988148;28;20038;-83
2021/12/04 02:49:39;;;;;;;49.38;15.32;;;4.90;99.90;;;;;;4979423;28;20034;-83
2021/12/04 02:52:07;;;;;;;45.97;15.03;;;5.00;99.90;;;;;;4975009;28;20038;-82
2021/12/04 02:54:33;;;;;;;37.95;14.18;;;4.90;99.90;;;;;;4975019;28;20042;-82
2021/12/04 02:57:00;;;;;;;;;;;4.90;99.90;;;;;;4992076;28;20054;-83
2021/12/04 02:59:26;;;;;;;41.58;13.30;;;4.90;99.90;;;;;;4994040;28;19918;-82
2021/12/04 03:01:55;;;;;;;46.50;14.07;;;4.90;99.90;;;;;;4990239;28;20053;-83
2021/12/04 03:04:23;;;;;;;41.58;13.35;;;4.90;99.90;;;;;;4987193;28;20038;-82
2021/12/04 03:06:48;;;;;;;44.08;14.30;;;4.90;99.90;;;;;;4994455;28;20049;-82
2021/12/04 03:09:15;;;;;;;39.83;13.33;;;4.90;99.90;;;;;;4994852;28;20037;-83
2021/12/04 03:11:41;;;;;;;36.63;14.02;;;4.90;99.90;;;;;;4992772;28;20045;-83
2021/12/04 03:14:07;;;;;;;42.75;13.55;;;4.90;99.90;;;;;;4981122;28;20095;-83
2021/12/04 03:16:34;;;;;;;41.63;14.32;;;4.90;99.90;;;;;;4995281;28;20046;-81
2021/12/04 03:19:00;;;;;;;33.85;13.57;;;4.90;99.90;;;;;;4991935;28;20038;-83
2021/12/04 03:21:26;;;;;;;40.30;14.13;;;4.90;99.90;;;;;;4994635;28;20038;-83
2021/12/04 03:26:25;;;;;;;42.50;13.13;;;4.90;99.90;;;;;;5010180;28;20050;-83
2021/12/04 03:28:52;;;;;;;44.08;14.25;;;4.90;99.90;;;;;;4971412;28;20524;-83
2021/12/04 03:42:16;;;;;;;33.95;12.35;;;4.90;99.90;;;;;;4994574;28;20052;-83
2021/12/04 03:44:41;;;;;;;34.90;12.43;;;4.90;99.90;;;;;;4994983;28;20124;-82
2021/12/04 03:47:09;;;;;;;36.27;12.77;;;4.90;99.90;;;;;;4993205;28;20042;-82
2021/12/04 03:49:34;;;;;;;31.20;11.70;;;4.90;99.90;;;;;;4994841;28;20557;-83
2021/12/04 03:52:00;;;;;;;39.17;11.27;;;4.90;99.90;;;;;;4995272;28;20046;-82
2021/12/04 03:54:26;;;;;;;29.97;11.90;;;4.90;99.90;;;;;;4995866;28;20034;-83
2021/12/04 03:57:01;;;;;;;32.60;11.50;;;4.90;99.90;;;;;;4989420;28;20034;-83
2021/12/04 03:59:27;;;;;;;29.65;10.95;;;4.90;99.90;;;;;;5011022;28;20045;-83
2021/12/04 04:01:52;;;;;;;37.47;11.05;;;4.90;99.90;;;;;;4995898;28;20431;-83
2021/12/04 04:04:18;;;;;;;36.23;11.30;;;4.90;99.90;;;;;;4994594;28;20035;-83
2021/12/04 04:06:43;;;;;;;30.20;11.20;;;4.90;99.90;;;;;;4995887;28;20038;-83
2021/12/04 04:09:09;;;;;;;35.93;12.30;;;4.90;99.90;;;;;;4993132;28;20049;-83
2021/12/04 04:11:36;;;;;;;39.23;10.97;;;4.90;99.90;;;;;;4996163;28;20049;-83
2021/12/04 04:14:03;;;;;;;28.77;10.23;;;4.90;99.90;;;;;;4996120;28;20378;-83
2021/12/04 04:16:29;;;;;;;31.92;12.40;;;4.90;99.90;;;;;;4998010;28;20042;-83
2021/12/04 04:18:54;;;;;;;26.40;9.73;;;4.90;99.90;;;;;;4975685;28;20108;-83
2021/12/04 04:21:20;;;;;;;32.00;10.87;;;4.90;99.90;;;;;;4993090;28;20088;-83
2021/12/04 04:23:45;;;;;;;41.40;10.63;;;4.90;99.90;;;;;;4978535;28;20048;-83
2021/12/04 04:26:11;;;;;;;29.00;10.97;;;4.90;99.90;;;;;;4992506;28;20579;-83
2021/12/04 04:28:37;;;;;;;30.87;11.23;;;4.90;99.90;;;;;;4974200;28;20046;-83
2021/12/04 04:31:03;;;;;;;31.25;10.50;;;4.90;99.90;;;;;;4972343;28;20046;-83
2021/12/04 04:33:35;;;;;;;32.30;12.35;;;4.90;99.90;;;;;;4977263;28;20121;-83
2021/12/04 04:38:46;;;;;;;42.53;11.98;;;4.90;99.90;;;;;;4986564;28;20113;-83
2021/12/04 04:57:59;;;;;;;45.10;11.30;;;4.90;99.90;;;;;;4989326;28;20538;-83
2021/12/04 05:13:36;;;;;;;41.73;12.70;;;4.90;99.90;;;;;;4994137;28;20042;-83
2021/12/04 05:16:15;;;;;;;30.38;11.90;;;4.90;99.90;;;;;;4978682;28;20116;-83
2021/12/04 05:18:55;;;;;;;37.03;11.93;;;4.90;99.90;;;;;;4977371;28;20085;-83
2021/12/04 05:21:20;;;;;;;35.40;11.60;;;4.90;99.90;;;;;;4992894;28;20526;-83
2021/12/04 05:23:53;;;;;;;35.73;12.37;;;4.90;99.90;;;;;;4996321;28;20044;-83
2021/12/04 05:26:28;;;;;;;37.30;12.93;;;4.90;99.90;;;;;;4992829;28;20404;-83
2021/12/04 05:28:55;;;;;;;36.30;12.38;;;4.90;99.90;;;;;;4975710;28;20112;-83
2021/12/04 05:31:21;;;;;;;34.38;11.68;;;4.90;99.90;;;;;;4990036;28;20038;-83
2021/12/04 05:33:50;;;;;;;36.80;12.20;;;4.90;99.90;;;;;;4993036;28;20137;-83
2021/12/04 05:36:16;;;;;;;34.42;10.95;;;4.90;99.90;;;;;;4983343;28;20129;-83
2021/12/04 05:38:42;;;;;;;34.85;12.30;;;4.90;99.90;;;;;;4974263;28;20045;-82
2021/12/04 05:41:08;;;;;;;34.95;10.77;;;4.90;99.90;;;;;;4991959;28;20045;-83
2021/12/04 05:43:34;;;;;;;39.95;14.52;;;4.90;99.90;;;;;;4989348;28;20034;-83
2021/12/04 05:46:26;;;;;;;29.20;10.38;;;4.90;99.90;;;;;;4992342;28;20522;-82
2021/12/04 05:48:56;;;;;;;42.97;12.07;;;4.90;99.90;;;;;;5007516;28;20088;-83
2021/12/04 05:56:20;;;;;;;43.70;11.95;;;5.00;99.90;;;;;;4991961;28;20495;-83
2021/12/04 05:58:47;;;;;;;31.58;10.60;;;5.00;99.90;;;;;;4980783;28;20049;-83
2021/12/04 06:01:15;;;;;;;29.17;11.60;;;5.00;99.90;;;;;;4978086;28;20100;-83
2021/12/04 06:03:41;;;;;;;31.60;11.45;;;4.90;99.90;;;;;;4978169;28;20042;-82
2021/12/04 06:06:07;;;;;;;33.27;11.27;;;5.00;99.90;;;;;;4992004;28;20129;-83
2021/12/04 06:08:32;;;;;;;36.67;10.67;;;5.00;99.90;;;;;;4993673;28;20041;-83
2021/12/04 06:10:58;;;;;;;36.83;11.60;;;4.90;99.90;;;;;;4994217;28;20042;-83
2021/12/04 06:13:24;;;;;;;30.87;10.23;;;4.90;99.90;;;;;;4991556;28;20058;-83
2021/12/04 06:15:51;;;;;;;39.50;10.07;;;4.90;99.90;;;;;;5010215;28;20041;-83
2021/12/04 06:18:17;;;;;;;;;;;5.00;99.90;;;;;;4993319;28;20041;-82
2021/12/04 06:23:29;;;;;;;32.53;11.02;;;5.00;99.90;;;;;;4988110;28;20100;-82
2021/12/04 06:25:55;;;;;;;37.28;11.35;;;4.90;99.90;;;;;;4993105;28;20045;-82
2021/12/04 06:28:20;;;;;;;42.28;10.32;;;4.90;99.90;;;;;;4973101;28;20046;-83
2021/12/04 06:30:46;;;;;;;32.60;10.30;;;5.00;99.90;;;;;;4991776;28;20049;-82
2021/12/04 06:33:16;;;;;;;30.93;11.20;;;4.90;99.90;;;;;;4992911;28;20526;-83
2021/12/04 06:35:42;;;;;;;27.25;9.93;;;4.90;99.90;;;;;;4992680;28;20042;-83
2021/12/04 06:38:11;;;;;;;36.75;11.15;;;4.90;99.90;;;;;;4989381;28;20413;-83
2021/12/04 06:40:38;;;;;;;36.35;10.95;;;4.90;99.90;;;;;;4978568;28;20089;-82
2021/12/04 06:43:06;;;;;;;33.22;11.30;;;5.00;99.90;;;;;;4996360;28;20050;-83
2021/12/04 06:45:34;;;;;;;31.05;10.25;;;5.00;99.90;;;;;;4997251;28;20037;-83
2021/12/04 06:48:07;;;;;;;34.90;11.02;;;5.00;99.90;;;;;;4979441;28;20042;-83
2021/12/04 06:50:56;;;;;;;32.30;10.05;;;5.00;99.90;;;;;;4996459;28;20145;-82
2021/12/04 06:55:55;;;;;;;33.55;10.23;;;4.90;99.90;;;;;;4993011;28;20049;-83
2021/12/04 06:58:23;;;;;;;31.50;10.43;;;4.90;99.90;;;;;;4996021;28;20563;-83
2021/12/04 07:00:49;;;;;;;37.55;11.27;;;5.00;99.90;;;;;;4991026;28;20042;-82
2021/12/04 07:03:16;;;;;;;42.10;12.18;;;4.90;99.90;;;;;;4996907;28;20184;-83
2021/12/04 07:05:41;;;;;;;;;;;5.00;99.90;;;;;;4994700;28;20109;-82
2021/12/04 07:08:07;;;;;;;29.40;10.60;;;4.90;99.90;;;;;;5009393;28;20048;-83
2021/12/04 07:10:34;;;;;;;29.17;10.00;;;4.90;99.90;;;;;;4988657;28;20046;-83
2021/12/04 07:13:00;;;;;;;;;;;5.00;99.90;;;;;;4992742;28;20034;-83
2021/12/04 07:15:28;;;;;;;30.48;10.65;;;4.90;99.90;;;;;;4995924;28;20414;-83
2021/12/04 07:17:56;;;;;;;36.13;11.30;;;4.90;99.90;;;;;;4995654;28;20116;-83
2021/12/04 07:20:23;;;;;;;43.33;10.45;;;4.90;99.90;;;;;;4995153;28;20511;-83
2021/12/04 07:22:49;;;;;;;30.38;10.77;;;5.00;99.90;;;;;;4984185;28;20052;-82
2021/12/04 07:25:15;;;;;;;48.28;11.40;;;4.90;99.90;;;;;;4981002;28;20045;-83
2021/12/04 07:27:40;;;;;;;35.88;10.15;;;5.00;99.90;;;;;;4995229;28;20611;-82
2021/12/04 07:30:07;;;;;;;36.23;9.57;;;4.90;99.90;;;;;;4995389;28;20495;-83
2021/12/04 07:32:34;;;;;;;47.03;11.95;;;5.00;99.90;;;;;;5016338;23;20052;-86
2021/12/04 07:34:59;;;;;;;32.85;11.02;;;5.00;99.90;;;;;;5017594;28;20041;-87
2021/12/04 07:37:25;;;;;;;44.00;11.20;;;4.90;99.90;;;;;;4992690;28;20208;-86
2021/12/04 07:39:54;;;;;;;53.00;11.23;;;5.00;99.90;;;;;;5017176;28;20045;-86
2021/12/04 07:42:19;;;;;;;33.90;10.20;;;5.00;99.90;;;;;;5011433;28;20657;-87
2021/12/04 07:44:45;;;;;;;38.53;11.10;;;5.00;99.90;;;;;;5011662;28;20037;-87
2021/12/04 07:47:11;;;;;;;43.13;11.37;;;4.90;99.90;;;;;;4998512;28;20049;-86
2021/12/04 07:49:38;;;;;;;35.55;10.85;;;4.90;99.90;;;;;;4998013;28;20384;-86
2021/12/04 07:52:06;;;;;;;35.22;12.05;;;4.90;99.90;;;;;;4993320;28;20108;-85
2021/12/04 07:54:32;;;;;;;42.47;10.88;;;5.00;99.90;;;;;;5008236;28;20431;-87
2021/12/04 07:56:58;;;;;;;41.33;10.70;;;5.00;99.90;;;;;;5009554;28;20037;-86
2021/12/04 07:59:24;;;;;;;32.87;10.60;;;5.00;99.90;;;;;;4996717;28;20041;-87
2021/12/04 08:01:50;;;;;;;40.28;11.20;;;5.00;99.90;;;;;;5013103;28;20507;-86
2021/12/04 08:04:16;;;;;;;42.10;10.97;;;5.00;99.90;;;;;;5009425;28;20060;-85
2021/12/04 08:06:41;;;;;;;38.67;10.17;;;5.00;99.90;;;;;;5009886;28;20042;-87
2021/12/04 08:09:07;;;;;;;45.67;11.40;;;5.00;99.90;;;;;;4998394;28;20095;-86
2021/12/04 08:11:33;;;;;;;33.30;9.97;;;5.00;99.90;;;;;;4997355;28;20041;-87
2021/12/04 08:13:58;;;;;;;38.78;11.13;;;5.00;99.90;;;;;;5009170;28;20044;-87
2021/12/04 08:16:24;;;;;;;35.70;12.00;;;5.00;99.90;;;;;;5009545;28;20042;-86
2021/12/04 08:18:54;;;;;;;47.85;11.05;;;5.00;99.90;;;;;;5018635;28;20658;-86
2021/12/04 08:21:21;;;;;;;41.63;10.63;;;5.10;99.90;;;;;;4991346;28;20041;-86
2021/12/04 08:23:47;;;;;;;31.25;9.80;;;5.00;99.90;;;;;;5012257;28;20056;-86
2021/12/04 08:26:14;;;;;;;43.70;11.35;;;5.00;99.90;;;;;;5001465;28;20041;-86
2021/12/04 08:28:40;;;;;;;33.15;11.48;;;5.00;99.90;;;;;;4996564;28;20045;-85
2021/12/04 08:31:06;;;;;;;28.70;9.80;;;5.10;99.90;;;;;;4990659;28;20069;-85
2021/12/04 08:33:31;;;;;;;37.13;11.30;;;5.00;99.90;;;;;;5007887;28;20044;-87
2021/12/04 08:36:23;;;;;;;48.20;11.10;;;5.10;99.90;;;;;;5007288;28;20860;-87
2021/12/04 08:38:50;;;;;;;41.85;10.30;;;5.10;99.90;;;;;;5018654;28;20056;-87
2021/12/04 08:41:16;;;;;;;;;;;5.10;99.90;;;;;;5004155;28;20053;-86
2021/12/04 08:43:42;;;;;;;33.25;9.45;;;5.10;99.90;;;;;;4997086;28;19917;-87
2021/12/04 08:46:08;;;;;;;29.73;9.48;;;5.10;99.90;;;;;;5004636;28;20124;-87
2021/12/04 08:49:09;;;;;;;36.43;10.07;;;5.10;99.90;;;;;;5005187;28;20124;-86
2021/12/04 08:51:35;;;;;;;52.72;11.35;;;5.10;99.90;;;;;;4968922;28;20093;-87
2021/12/04 08:54:11;;;;;;;37.45;9.95;;;5.10;99.90;;;;;;5007785;28;20048;-87
2021/12/04 08:56:37;;;;;;;30.13;10.52;;;5.10;99.90;;;;;;4994906;28;20515;-87
2021/12/04 08:59:04;;;;;;;31.73;9.77;;;5.10;99.90;;;;;;4997189;28;20037;-86
2021/12/04 09:01:32;;;;;;;34.17;10.40;;;5.10;99.90;;;;;;5006121;28;20175;-87
2021/12/04 09:04:04;;;;;;;43.38;11.57;;;5.00;99.90;;;;;;4997188;28;20037;-87
2021/12/04 09:06:30;;;;;;;30.00;10.27;;;5.10;99.90;;;;;;4999150;28;20034;-87
2021/12/04 09:08:56;;;;;;;33.53;10.00;;;5.10;99.90;;;;;;4996164;28;20033;-86
2021/12/04 09:11:29;;;;;;;36.40;10.43;;;5.10;99.90;;;;;;5016298;28;20104;-87
2021/12/04 09:13:56;;;;;;;35.63;9.80;;;5.10;99.90;;;;;;4995012;28;20065;-86
2021/12/04 09:16:23;;;;;;;31.23;10.23;;;5.10;99.90;;;;;;4997922;28;20034;-87
2021/12/04 09:18:50;;;;;;;39.95;10.65;;;5.10;99.90;;;;;;4989781;28;20575;-85
2021/12/04 09:21:18;;;;;;;37.85;10.50;;;5.10;99.90;;;;;;4995046;28;20069;-87
2021/12/04 09:24:00;;;;;;;29.60;10.32;;;5.10;99.90;;;;;;5008465;28;20080;-86
2021/12/04 09:26:37;;;;;;;29.02;10.07;;;5.10;99.90;;;;;;5011773;28;20443;-87
2021/12/04 09:31:53;;;;;;;30.15;8.88;;;5.10;99.90;;;;;;5005944;28;20084;-85
2021/12/04 10:18:14;;;;;;;22.50;8.88;;;5.20;99.90;;;;;;5014394;28;20179;-86
2021/12/04 10:20:59;;;;;;;26.92;9.80;;;5.20;99.90;;;;;;5016259;28;20049;-85
2021/12/04 10:23:42;;;;;;;24.52;8.65;;;5.20;99.90;;;;;;5014680;28;20082;-86
2021/12/04 10:34:35;;;;;;;21.90;8.43;;;5.30;99.90;;;;;;5015070;28;20044;-87
2021/12/04 10:37:13;;;;;;;25.48;8.93;;;5.30;99.90;;;;;;4998406;28;20100;-87
2021/12/04 10:39:39;;;;;;;27.70;8.65;;;5.30;99.90;;;;;;4999484;28;20029;-86
2021/12/04 10:42:20;;;;;;;24.77;9.00;;;5.30;99.90;;;;;;4996890;28;20128;-87
2021/12/04 10:44:51;;;;;;;25.52;9.15;;;5.30;99.90;;;;;;5010215;28;20064;-87
2021/12/04 10:47:23;;;;;;;29.67;10.02;;;5.30;99.90;;;;;;5013227;28;20045;-87
2021/12/04 10:52:46;;;;;;;26.63;9.98;;;5.30;99.90;;;;;;5007971;28;20534;-87
2021/12/04 10:55:52;;;;;;;25.73;9.23;;;5.40;99.90;;;;;;4999360;28;20037;-86
2021/12/04 11:04:40;;;;;;;23.75;9.23;;;5.30;99.90;;;;;;5028680;28;20486;-86
2021/12/04 11:27:07;;;;;;;25.83;9.43;;;5.40;99.90;;;;;;5007834;28;20050;-86
2021/12/04 11:35:00;;;;;;;24.80;8.27;;;5.40;99.90;;;;;;5013828;28;20567;-87
2021/12/04 11:36:08;;;;;;;17.88;8.60;;;5.50;99.90;;;;;;5008942;28;20054;-86
2021/12/04 11:38:51;;;;;;;17.40;8.80;;;5.50;99.90;;;;;;5028484;28;20053;-87
2021/12/04 11:41:28;;;;;;;21.70;9.23;;;5.40;99.90;;;;;;4995319;28;20399;-86
2021/12/04 11:46:45;;;;;;;20.35;9.52;;;5.50;99.90;;;;;;5026747;28;20045;-89
2021/12/04 11:49:18;;;;;;;24.50;8.80;;;5.50;99.90;;;;;;5006740;28;20518;-87
2021/12/04 11:51:48;;;;;;;18.05;9.20;;;5.50;99.90;;;;;;5026784;28;20045;-86
2021/12/04 11:54:14;;;;;;;20.65;9.48;;;5.50;99.90;;;;;;5012673;28;20044;-86
2021/12/04 11:56:40;;;;;;;22.07;9.03;;;5.40;99.90;;;;;;5006085;28;20037;-87
2021/12/04 11:59:05;;;;;;;24.23;8.90;;;5.50;99.90;;;;;;5022701;28;20565;-86
2021/12/04 12:01:38;;;;;;;20.40;8.93;;;5.50;99.90;;;;;;5011589;28;20042;-86
2021/12/04 12:04:10;;;;;;;22.33;10.35;;;5.50;99.90;;;;;;5030535;28;20056;-86
2021/12/04 12:06:41;;;;;;;18.08;8.70;;;5.50;99.90;;;;;;5009440;28;20133;-87
2021/12/04 12:09:15;;;;;;;22.17;9.52;;;5.50;99.90;;;;;;4995879;28;20041;-87
2021/12/04 12:11:56;;;;;;;20.02;9.30;;;5.50;99.90;;;;;;5029061;28;20571;-87
2021/12/04 12:14:37;;;;;;;24.60;9.05;;;5.50;99.90;;;;;;5016059;28;20038;-87
2021/12/04 12:17:03;;;;;;;22.17;8.57;;;5.60;99.90;;;;;;5011768;28;20040;-86
2021/12/04 12:19:36;;;;;;;20.10;9.13;;;5.60;99.90;;;;;;5011904;28;20080;-86
2021/12/04 12:22:08;;;;;;;19.90;8.50;;;5.60;99.90;;;;;;5012746;28;20052;-86
2021/12/04 12:33:24;;;;;;;21.70;8.63;;;5.60;99.90;;;;;;5012306;28;20102;-87
2021/12/04 12:38:57;;;;;;;19.98;9.55;;;5.60;99.90;;;;;;5011881;28;20095;-87
2021/12/04 12:41:26;;;;;;;26.42;9.57;;;5.60;99.90;;;;;;5007111;28;20092;-86
2021/12/04 12:44:14;;;;;;;30.85;10.00;;;5.70;99.90;;;;;;5010340;28;20053;-86
2021/12/04 12:46:45;;;;;;;;;;;5.70;99.90;;;;;;5011093;28;20102;-86
2021/12/04 12:49:28;;;;;;;26.52;9.80;;;5.70;99.90;;;;;;4995447;28;19920;-86
2021/12/04 12:51:59;;;;;;;25.48;10.27;;;5.70;99.90;;;;;;5024003;28;20053;-86
2021/12/04 12:54:37;;;;;;;29.58;10.20;;;5.70;99.90;;;;;;5024864;28;20045;-86
2021/12/04 12:57:08;;;;;;;23.10;9.70;;;5.70;99.90;;;;;;5007830;28;20037;-84
2021/12/04 13:14:07;;;;;;;25.70;11.05;;;5.70;99.90;;;;;;5022453;28;20132;-87
2021/12/04 13:16:32;;;;;;;25.10;9.38;;;5.70;99.90;;;;;;5011549;28;20037;-86
2021/12/04 13:19:04;;;;;;;20.57;9.57;;;5.70;99.90;;;;;;5009272;28;20040;-87
2021/12/04 13:21:33;;;;;;;22.48;9.90;;;5.80;99.90;;;;;;5003496;28;20453;-85
2021/12/04 13:23:58;;;;;;;24.20;10.10;;;5.80;99.90;;;;;;5011255;28;20462;-86
2021/12/04 13:26:29;;;;;;;22.23;9.43;;;5.70;99.90;;;;;;5002329;28;20041;-86
2021/12/04 13:28:58;;;;;;;21.67;9.00;;;5.80;99.90;;;;;;5028568;28;20334;-87
2021/12/04 13:31:24;;;;;;;19.73;9.20;;;5.70;99.90;;;;;;5025518;22;20132;-73
2021/12/04 13:33:51;;;;;;;23.35;9.48;;;5.80;99.90;;;;;;4989367;28;20575;-73
2021/12/04 13:36:29;;;;;;;21.05;9.65;;;5.80;99.90;;;;;;4988182;28;20037;-72
2021/12/04 13:39:05;;;;;;;25.75;9.82;;;5.80;99.90;;;;;;4987165;28;20057;-72
2021/12/04 13:41:31;;;;;;;25.35;10.88;;;5.80;99.90;;;;;;4987102;28;20198;-73
2021/12/04 13:44:00;;;;;;;25.42;11.00;;;5.80;99.90;;;;;;4989565;28;20056;-73
2021/12/04 13:46:26;;;;;;;20.02;8.95;;;5.80;99.90;;;;;;4970501;28;20046;-72
2021/12/04 13:48:59;;;;;;;26.13;8.88;;;5.80;99.90;;;;;;4988865;28;20387;-73
2021/12/04 13:51:25;;;;;;;21.30;8.95;;;5.80;99.90;;;;;;4988209;28;20199;-72
2021/12/04 13:53:51;;;;;;;18.93;8.77;;;5.70;99.90;;;;;;4986669;28;20187;-73
2021/12/04 13:56:19;;;;;;;21.02;9.35;;;5.70;99.90;;;;;;5001087;28;20045;-73
2021/12/04 13:58:48;;;;;;;20.85;8.68;;;5.80;99.90;;;;;;5004535;28;20049;-73
2021/12/04 14:01:15;;;;;;;24.38;9.52;;;5.70;99.90;;;;;;4987763;28;20050;-73
2021/12/04 14:03:42;;;;;;;20.08;8.60;;;5.70;99.90;;;;;;4990314;28;20495;-73
2021/12/04 14:06:13;;;;;;;18.02;8.65;;;5.70;99.90;;;;;;5002505;28;20050;-73
2021/12/04 14:08:39;;;;;;;18.50;8.13;;;5.70;99.90;;;;;;4987562;28;20050;-72
2021/12/04 14:11:05;;;;;;;24.05;9.35;;;5.70;99.90;;;;;;4989123;28;20041;-73
2021/12/04 14:13:31;;;;;;;19.17;8.40;;;5.70;99.90;;;;;;4990130;28;20049;-73
2021/12/04 14:15:57;;;;;;;25.20;8.97;;;5.70;99.90;;;;;;4985530;28;20514;-73
2021/12/04 14:18:24;;;;;;;21.38;9.68;;;5.70;99.90;;;;;;4990363;28;20125;-73
2021/12/04 14:20:56;;;;;;;20.42;8.88;;;5.70;99.90;;;;;;4988838;28;20042;-73
2021/12/04 14:23:27;;;;;;;22.85;9.43;;;5.70;99.90;;;;;;4986749;28;20550;-72
2021/12/04 14:25:55;;;;;;;24.42;8.80;;;5.70;99.90;;;;;;4981981;28;20084;-72
2021/12/04 14:28:25;;;;;;;23.23;9.15;;;5.70;99.90;;;;;;4984921;28;20046;-72
2021/12/04 14:30:52;;;;;;;21.67;9.48;;;5.60;99.90;;;;;;4989916;28;20511;-72
2021/12/04 14:33:22;;;;;;;21.02;8.95;;;5.60;99.90;;;;;;4982389;28;20045;-73
2021/12/04 14:35:50;;;;;;;21.77;8.95;;;5.60;99.90;;;;;;4975193;28;20038;-73
2021/12/04 14:38:20;;;;;;;23.95;8.85;;;5.60;99.90;;;;;;4989702;28;20042;-73
2021/12/04 14:40:57;;;;;;;28.10;9.75;;;5.60;99.90;;;;;;4998015;28;20057;-73
2021/12/04 14:43:25;;;;;;;22.17;8.60;;;5.60;99.90;;;;;;4979017;28;20065;-72
2021/12/04 14:45:56;;;;;;;28.40;9.70;;;5.60;99.90;;;;;;4989653;28;20521;-72
2021/12/04 14:48:43;;;;;;;28.45;10.38;;;5.60;99.90;;;;;;4989470;28;20050;-72
2021/12/04 14:51:13;;;;;;;25.95;9.60;;;5.60;99.90;;;;;;4986823;28;20038;-73
2021/12/04 14:53:51;;;;;;;24.73;9.45;;;5.50;99.90;;;;;;4989669;28;20046;-73
2021/12/04 14:56:19;;;;;;;30.45;11.15;;;5.60;99.90;;;;;;5002761;28;20121;-73
2021/12/04 14:58:45;;;;;;;25.70;10.00;;;5.60;99.90;;;;;;5007053;28;20510;-73
2021/12/04 15:01:13;;;;;;;28.88;10.15;;;5.60;99.90;;;;;;4991370;28;20128;-73
2021/12/04 15:03:45;;;;;;;29.70;10.57;;;5.60;99.90;;;;;;4987424;28;20069;-73
2021/12/04 15:06:13;;;;;;;27.73;9.88;;;5.60;99.90;;;;;;4988303;28;20042;-71
2021/12/04 15:08:43;;;;;;;24.48;9.25;;;5.60;99.90;;;;;;4990279;28;20494;-73
2021/12/04 15:11:17;;;;;;;27.10;10.65;;;5.60;99.90;;;;;;5008931;28;20042;-73
2021/12/04 15:13:53;;;;;;;20.95;8.27;;;5.60;99.90;;;;;;4989960;28;20108;-73
2021/12/04 15:16:31;;;;;;;26.35;10.10;;;5.60;99.90;;;;;;4995444;28;20442;-72
2021/12/04 15:19:12;;;;;;;21.98;8.63;;;5.60;99.90;;;;;;4993151;28;20042;-73
2021/12/04 15:21:43;;;;;;;22.40;8.80;;;5.60;99.90;;;;;;5008529;28;20072;-72
2021/12/04 15:24:13;;;;;;;23.80;8.98;;;5.60;99.90;;;;;;4992393;28;20042;-73
2021/12/04 15:26:41;;;;;;;25.85;9.63;;;5.60;99.90;;;;;;4992513;28;20049;-73
2021/12/04 15:29:17;;;;;;;21.85;8.02;;;5.60;99.90;;;;;;4991658;28;20074;-73
2021/12/04 15:31:42;;;;;;;21.92;9.48;;;5.60;99.90;;;;;;4992420;28;20037;-73
2021/12/04 15:34:08;;;;;;;24.83;9.37;;;5.60;99.90;;;;;;5004144;28;20041;-73
2021/12/04 15:36:38;;;;;;;20.73;10.07;;;5.60;99.90;;;;;;4991893;28;20801;-73
2021/12/04 15:39:11;;;;;;;20.05;9.30;;;5.60;99.90;;;;;;5004478;28;20420;-73
2021/12/04 15:42:14;;;;;;;21.38;8.57;;;5.60;99.90;;;;;;4993042;28;20042;-73
2021/12/04 15:44:54;;;;;;;21.73;8.25;;;5.50;99.90;;;;;;4991804;28;20038;-73
2021/12/04 15:47:36;;;;;;;28.38;9.98;;;5.60;99.90;;;;;;5006989;28;20160;-73
2021/12/04 15:50:49;;;;;;;28.65;10.27;;;5.60;99.90;;;;;;4992321;28;20171;-73
2021/12/04 15:53:15;;;;;;;19.52;8.25;;;5.60;99.90;;;;;;4991673;28;20058;-73
2021/12/04 15:55:47;;;;;;;20.17;8.43;;;5.60;99.90;;;;;;4991725;28;20519;-73
2021/12/04 15:58:16;;;;;;;20.38;8.55;;;5.60;99.90;;;;;;4990212;28;20088;-73
2021/12/04 16:00:52;;;;;;;26.25;8.90;;;5.60;99.90;;;;;;4989594;28;20037;-73
2021/12/04 16:03:20;;;;;;;21.60;9.57;;;5.60;99.90;;;;;;4994483;28;20140;-73